createdAt,value
2019-03-22T09:21:12.724Z,23.58
2019-03-22T09:21:17.923Z,23.50
2019-03-22T09:21:23.090Z,23.48
2019-03-22T09:22:21.455Z,23.58
2019-03-22T09:22:26.642Z,23.60
2019-03-22T09:22:31.824Z,23.65
2019-03-22T09:44:59.371Z,23.58
2019-03-22T09:45:04.641Z,23.59
2019-03-22T09:45:09.817Z,23.54
2019-03-22T09:45:14.997Z,23.54
2019-03-22T09:45:20.194Z,23.56
2019-03-22T09:45:25.366Z,23.54
2019-03-22T09:45:56.249Z,23.54
2019-03-22T09:46:01.531Z,23.58
2019-03-22T09:46:53.722Z,23.63
2019-03-22T09:46:59.040Z,23.58
2019-03-22T09:47:04.220Z,23.56
2019-03-22T09:47:09.399Z,23.56
2019-03-22T09:47:16.538Z,23.58
2019-03-22T09:47:39.932Z,23.59
2019-03-22T09:47:45.212Z,23.56
2019-03-22T09:47:50.423Z,23.54
2019-03-22T09:47:55.660Z,23.54
2019-03-22T09:48:00.861Z,23.53
2019-03-22T09:48:06.286Z,23.53
2019-03-22T09:48:11.580Z,23.52
2019-03-22T09:48:16.815Z,23.52
2019-03-22T09:48:22.007Z,23.52
2019-03-22T09:48:27.186Z,23.54
2019-03-22T09:48:32.430Z,23.52
2019-03-22T09:48:37.641Z,23.53
2019-03-22T09:48:42.965Z,23.54
2019-03-22T09:48:48.209Z,23.56
2019-03-22T09:48:53.410Z,23.50
2019-03-22T09:48:58.605Z,23.50
2019-03-22T09:49:03.793Z,23.52
2019-03-22T09:49:08.983Z,23.49
2019-03-22T09:49:14.165Z,23.50
2019-03-22T09:49:19.470Z,23.53
2019-03-22T09:49:24.659Z,23.50
2019-03-22T09:49:29.875Z,23.52
2019-03-22T09:49:35.069Z,23.56
2019-03-22T09:49:40.257Z,23.63
2019-03-22T09:49:45.535Z,23.65
2019-03-22T09:49:51.352Z,23.63
2019-03-22T09:49:56.649Z,23.63
2019-03-22T09:50:01.829Z,23.62
2019-03-22T09:50:07.019Z,23.60
2019-03-22T09:50:12.248Z,23.56
2019-03-22T09:50:17.481Z,23.56
2019-03-22T09:50:22.706Z,23.56
2019-03-22T09:50:27.990Z,23.60
2019-03-22T09:50:33.180Z,23.60
2019-03-22T09:50:38.370Z,23.56
2019-03-22T09:50:43.549Z,23.58
2019-03-22T09:50:48.800Z,23.59
2019-03-22T09:50:54.034Z,23.58
2019-03-22T09:50:59.253Z,23.56
2019-03-22T09:51:04.441Z,23.56
2019-03-22T09:51:09.669Z,23.59
2019-03-22T09:51:14.857Z,23.56
2019-03-22T09:51:20.045Z,23.60
2019-03-22T09:51:25.288Z,23.62
2019-03-22T09:51:30.487Z,23.59
2019-03-22T09:51:35.677Z,23.62
2019-03-22T09:51:40.862Z,23.60
2019-03-22T09:51:46.043Z,23.62
2019-03-22T09:51:51.285Z,23.63
2019-03-22T09:51:56.543Z,23.63
2019-03-22T09:52:01.741Z,23.63
2019-03-22T09:52:06.930Z,23.63
2019-03-22T09:52:12.137Z,23.66
2019-03-22T09:52:17.355Z,23.65
2019-03-22T09:52:22.556Z,23.63
2019-03-22T09:52:27.747Z,23.65
2019-03-22T09:52:33.796Z,23.62
2019-03-22T09:52:39.131Z,23.66
2019-03-22T09:52:44.328Z,23.65
2019-03-22T09:52:49.603Z,23.65
2019-03-22T09:52:54.823Z,23.63
2019-03-22T09:53:00.164Z,23.65
2019-03-22T09:53:05.461Z,23.63
2019-03-22T09:53:10.664Z,23.63
2019-03-22T09:53:15.943Z,23.66
2019-03-22T09:53:21.136Z,23.66
2019-03-22T09:53:26.322Z,23.68
2019-03-22T09:53:31.510Z,23.68
2019-03-22T09:53:36.743Z,23.69
2019-03-22T09:53:41.970Z,23.66
2019-03-22T09:53:47.166Z,23.65
2019-03-22T09:53:52.390Z,23.65
2019-03-22T09:53:57.592Z,23.66
2019-03-22T09:54:02.805Z,23.65
2019-03-22T09:54:07.988Z,23.60
2019-03-22T09:54:13.176Z,23.65
2019-03-22T09:54:18.362Z,23.65
2019-03-22T09:54:23.548Z,23.63
2019-03-22T09:54:28.770Z,23.66
2019-03-22T09:54:34.012Z,23.66
2019-03-22T09:54:39.214Z,23.68
2019-03-22T09:54:44.403Z,23.69
2019-03-22T09:54:49.574Z,23.68
2019-03-22T09:54:54.841Z,23.66
2019-03-22T09:55:12.755Z,23.69
2019-03-22T09:55:14.175Z,23.68
2019-03-22T09:55:19.772Z,23.70
2019-03-22T09:55:24.959Z,23.69
2019-03-22T09:55:30.173Z,23.70
2019-03-22T09:55:35.429Z,23.66
2019-03-22T09:55:40.642Z,23.65
2019-03-22T09:55:45.813Z,23.68
2019-03-22T09:55:51.002Z,23.69
2019-03-22T09:55:56.205Z,23.70
2019-03-22T09:56:01.393Z,23.70
2019-03-22T09:56:06.592Z,23.70
2019-03-22T09:56:11.835Z,23.68
2019-03-22T09:56:17.071Z,23.69
2019-03-22T09:56:22.310Z,23.70
2019-03-22T09:56:27.547Z,23.70
2019-03-22T09:56:32.743Z,23.69
2019-03-22T09:56:46.784Z,23.68
2019-03-22T09:56:49.093Z,23.69
2019-03-22T09:56:54.401Z,23.68
2019-03-22T09:56:59.603Z,23.68
2019-03-22T09:57:04.861Z,23.65
2019-03-22T09:57:10.094Z,23.63
2019-03-22T09:57:15.335Z,23.63
2019-03-22T09:57:20.557Z,23.62
2019-03-22T09:57:25.866Z,23.63
2019-03-22T09:57:31.071Z,23.63
2019-03-22T09:57:36.273Z,23.63
2019-03-22T09:57:41.472Z,23.65
2019-03-22T09:57:49.313Z,23.63
2019-03-22T09:57:54.795Z,23.60
2019-03-22T09:58:00.003Z,23.65
2019-03-22T09:58:05.235Z,23.63
2019-03-22T09:58:10.522Z,23.60
2019-03-22T09:58:15.714Z,23.60
2019-03-22T09:58:20.952Z,23.60
2019-03-22T09:58:26.140Z,23.62
2019-03-22T09:58:31.346Z,23.65
2019-03-22T09:58:36.660Z,23.66
2019-03-22T09:58:41.927Z,23.68
2019-03-22T09:58:47.150Z,23.70
2019-03-22T09:58:52.341Z,23.70
2019-03-22T09:58:57.546Z,23.70
2019-03-22T09:59:02.732Z,23.72
2019-03-22T09:59:07.965Z,23.72
2019-03-22T09:59:13.159Z,23.73
2019-03-22T09:59:18.343Z,23.72
2019-03-22T09:59:23.538Z,23.74
2019-03-22T09:59:28.775Z,23.74
2019-03-22T09:59:33.979Z,23.74
2019-03-22T09:59:39.219Z,23.73
2019-03-22T09:59:44.501Z,23.74
2019-03-22T09:59:49.760Z,23.74
2019-03-22T09:59:54.959Z,23.76
2019-03-22T10:00:00.353Z,23.74
2019-03-22T10:00:05.581Z,23.77
2019-03-22T10:00:10.817Z,23.76
2019-03-22T10:00:16.010Z,23.76
2019-03-22T10:00:21.201Z,23.74
2019-03-22T10:00:26.442Z,23.73
2019-03-22T10:00:31.645Z,23.72
2019-03-22T10:00:36.842Z,23.72
2019-03-22T10:00:42.914Z,23.72
2019-03-22T10:00:48.698Z,23.72
2019-03-22T10:00:54.232Z,23.74
2019-03-22T10:00:59.591Z,23.74
2019-03-22T10:01:04.984Z,23.77
2019-03-22T10:01:22.900Z,23.86
2019-03-22T10:01:23.944Z,26.86
2019-03-22T10:01:29.460Z,26.18
2019-03-22T10:01:34.643Z,25.81
2019-03-22T10:01:39.829Z,25.58
2019-03-22T10:01:45.120Z,25.48
2019-03-22T10:01:50.318Z,25.44
2019-03-22T10:01:55.540Z,25.36
2019-03-22T10:02:00.777Z,25.23
2019-03-22T10:02:06.004Z,25.14
2019-03-22T10:02:11.201Z,25.04
2019-03-22T10:02:16.400Z,25.04
2019-03-22T10:02:21.612Z,24.96
2019-03-22T10:02:26.849Z,24.89
2019-03-22T10:02:32.067Z,24.86
2019-03-22T10:02:37.247Z,24.79
2019-03-22T10:02:42.427Z,24.72
2019-03-22T10:02:47.622Z,24.71
2019-03-22T10:02:52.837Z,24.65
2019-03-22T10:02:58.053Z,24.62
2019-03-22T10:03:03.272Z,24.58
2019-03-22T10:03:08.487Z,24.56
2019-03-22T10:03:13.680Z,24.54
2019-03-22T10:03:18.897Z,24.54
2019-03-22T10:03:24.112Z,24.52
2019-03-22T10:03:29.292Z,24.56
2019-03-22T10:03:34.512Z,24.58
2019-03-22T10:03:42.479Z,24.61
2019-03-22T10:03:47.854Z,24.51
